Time;durP1;ratioP1;P1;durP2;ratioP2;P2;SDS_P1;SDS_P2;PMS_P1;PMS_P2;Temp;Humidity;BMP_temperature;BMP_pressure;BME280_temperature;BME280_humidity;BME280_pressure;Samples;Min_cycle;Max_cycle;Signal;HPM_P1;HPM_P2
2022/11/07 00:00:05;;;;;;;;;;;;;;;14.21;82.53;100232.31;1277988;23;641;-79
2022/11/07 00:00:55;;;;;;;;;;;;;;;14.23;81.56;100233.03;1277730;23;920;-79
2022/11/07 00:01:46;;;;;;;;;;;;;;;14.23;82.01;100224.13;1277872;23;680;-80
2022/11/07 00:02:36;;;;;;;;;;;;;;;14.29;83.37;100234.31;1277730;23;568;-79
2022/11/07 00:03:27;;;;;;;;;;;;;;;14.40;82.19;100228.84;1277736;23;649;-79
2022/11/07 00:04:17;;;;;;;;;;;;;;;14.45;82.06;100236.47;1277128;23;613;-80
2022/11/07 00:05:08;;;;;;;;;;;;;;;14.52;82.65;100240.28;1277935;23;688;-80
2022/11/07 00:05:58;;;;;;;;;;;;;;;14.50;82.46;100239.59;1277835;23;602;-81
2022/11/07 00:06:48;;;;;;;;;;;;;;;14.40;81.36;100239.56;1279351;23;624;-81
2022/11/07 00:07:39;;;;;;;;;;;;;;;14.40;81.12;100236.88;1277661;23;946;-80
2022/11/07 00:08:32;;;;;;;;;;;;;;;14.47;82.46;100237.19;1277678;23;626;-81
2022/11/07 00:09:22;;;;;;;;;;;;;;;14.40;81.09;100242.25;1279360;23;1954;-80
2022/11/07 00:10:13;;;;;;;;;;;;;;;14.41;82.74;100232.38;1277956;23;661;-80
2022/11/07 00:11:03;;;;;;;;;;;;;;;14.43;81.31;100231.25;1277743;23;617;-80
2022/11/07 00:11:53;;;;;;;;;;;;;;;14.50;82.51;100242.28;1274033;23;676;-80
2022/11/07 00:12:44;;;;;;;;;;;;;;;14.31;81.80;100239.53;1272525;23;653;-80
2022/11/07 00:13:34;;;;;;;;;;;;;;;14.42;82.17;100239.44;1277741;23;644;-80
2022/11/07 00:14:25;;;;;;;;;;;;;;;14.47;82.48;100232.69;1278268;23;650;-79
2022/11/07 00:15:15;;;;;;;;;;;;;;;14.56;82.38;100244.38;1277695;23;586;-81
2022/11/07 00:16:06;;;;;;;;;;;;;;;14.58;82.00;100245.94;1277986;23;657;-81
2022/11/07 00:16:56;;;;;;;;;;;;;;;14.40;80.48;100249.41;1277902;23;629;-80
2022/11/07 00:17:47;;;;;;;;;;;;;;;14.23;81.84;100245.56;1277925;23;645;-80
2022/11/07 00:18:37;;;;;;;;;;;;;;;14.24;80.67;100253.47;1277715;23;727;-81
2022/11/07 00:19:28;;;;;;;;;;;;;;;14.19;81.15;100255.72;1277832;23;665;-81
2022/11/07 00:20:18;;;;;;;;;;;;;;;14.19;82.19;100247.66;1279714;22;1092;-81
2022/11/07 00:21:08;;;;;;;;;;;;;;;14.25;81.79;100244.44;1297264;22;648;-82
2022/11/07 00:21:59;;;;;;;;;;;;;;;14.14;81.87;100246.41;1297075;22;601;-83
2022/11/07 00:22:49;;;;;;;;;;;;;;;14.23;82.24;100249.09;1297175;22;625;-83
2022/11/07 00:23:40;;;;;;;;;;;;;;;14.28;82.96;100246.00;1297065;22;665;-83
2022/11/07 00:24:30;;;;;;;;;;;;;;;14.19;80.64;100239.63;1296771;22;652;-80
2022/11/07 00:25:21;;;;;;;;;;;;;;;14.13;81.53;100258.97;1296324;22;641;-80
2022/11/07 00:26:11;;;;;;;;;;;;;;;14.02;81.89;100252.84;1296312;22;592;-81
2022/11/07 00:27:02;;;;;;;;;;;;;;;14.24;82.49;100256.16;1297275;22;698;-81
2022/11/07 00:27:52;;;;;;;;;;;;;;;14.12;81.47;100251.91;1297106;22;649;-81
2022/11/07 00:28:42;;;;;;;;;;;;;;;14.20;83.18;100259.25;1297395;22;602;-81
2022/11/07 00:29:33;;;;;;;;;;;;;;;14.23;81.83;100254.47;1297337;22;601;-82
2022/11/07 00:30:23;;;;;;;;;;;;;;;14.34;81.94;100258.00;1297178;22;687;-83
2022/11/07 00:31:14;;;;;;;;;;;;;;;14.33;81.90;100253.66;1297084;22;648;-83
2022/11/07 00:32:04;;;;;;;;;;;;;;;14.35;81.65;100252.50;1297361;22;666;-83
2022/11/07 00:32:55;;;;;;;;;;;;;;;14.35;82.94;100265.06;1297255;22;661;-83
2022/11/07 00:33:45;;;;;;;;;;;;;;;14.40;82.89;100268.19;1296761;22;785;-84
2022/11/07 00:34:36;;;;;;;;;;;;;;;14.27;81.29;100262.22;1297143;22;703;-83
2022/11/07 00:35:26;;;;;;;;;;;;;;;14.39;82.50;100263.81;1297171;22;656;-84
2022/11/07 00:36:16;;;;;;;;;;;;;;;14.15;81.36;100256.97;1297276;22;687;-83
2022/11/07 00:37:07;;;;;;;;;;;;;;;14.21;81.89;100275.19;1297017;22;597;-83
2022/11/07 00:37:57;;;;;;;;;;;;;;;14.23;81.76;100261.66;1297223;22;610;-84
2022/11/07 00:38:48;;;;;;;;;;;;;;;14.33;82.39;100257.16;1297427;22;625;-84
2022/11/07 00:39:38;;;;;;;;;;;;;;;14.24;81.48;100261.50;1297206;22;645;-83
2022/11/07 00:40:29;;;;;;;;;;;;;;;14.24;81.25;100261.50;1297193;22;641;-82
2022/11/07 00:41:19;;;;;;;;;;;;;;;14.37;82.47;100263.09;1296985;22;737;-83
2022/11/07 00:42:09;;;;;;;;;;;;;;;14.12;81.52;100262.63;1298268;22;715;-83
2022/11/07 00:43:00;;;;;;;;;;;;;;;14.11;81.54;100252.03;1297010;22;610;-83
2022/11/07 00:43:50;;;;;;;;;;;;;;;14.00;80.62;100252.97;1297256;22;637;-84
2022/11/07 00:44:41;;;;;;;;;;;;;;;14.05;82.63;100266.81;1297353;22;664;-84
2022/11/07 00:45:31;;;;;;;;;;;;;;;14.08;81.86;100258.50;1297196;22;597;-84
2022/11/07 00:46:22;;;;;;;;;;;;;;;13.99;81.09;100259.31;1297352;22;645;-83
2022/11/07 00:47:12;;;;;;;;;;;;;;;14.04;82.46;100264.28;1297078;22;621;-83
2022/11/07 00:48:02;;;;;;;;;;;;;;;14.13;82.46;100258.13;1297139;22;661;-81
2022/11/07 00:48:53;;;;;;;;;;;;;;;14.18;81.84;100269.25;1297461;22;657;-79
2022/11/07 00:49:43;;;;;;;;;;;;;;;14.26;82.36;100274.78;1297522;22;572;-81
2022/11/07 00:50:34;;;;;;;;;;;;;;;14.23;81.60;100273.22;1297667;22;604;-79
2022/11/07 00:51:24;;;;;;;;;;;;;;;14.12;81.29;100267.97;1297461;22;644;-79
2022/11/07 00:52:15;;;;;;;;;;;;;;;14.05;80.66;100272.19;1297355;22;1224;-80
2022/11/07 00:53:05;;;;;;;;;;;;;;;14.05;81.30;100264.13;1297517;22;578;-79
2022/11/07 00:53:55;;;;;;;;;;;;;;;14.15;81.58;100273.03;1297465;22;637;-79
2022/11/07 00:54:46;;;;;;;;;;;;;;;14.29;82.87;100276.34;1297476;22;699;-79
2022/11/07 00:55:36;;;;;;;;;;;;;;;14.01;80.36;100273.41;1297513;22;664;-80
2022/11/07 00:56:27;;;;;;;;;;;;;;;13.89;81.75;100280.72;1297585;22;518;-79
2022/11/07 00:57:17;;;;;;;;;;;;;;;13.99;81.63;100283.41;1297581;22;660;-80
2022/11/07 00:58:08;;;;;;;;;;;;;;;14.02;81.66;100276.94;1297502;22;668;-80
2022/11/07 00:58:58;;;;;;;;;;;;;;;14.05;81.47;100284.72;1296706;22;676;-80
2022/11/07 00:59:49;;;;;;;;;;;;;;;13.98;81.31;100271.00;1297525;22;602;-80
2022/11/07 01:00:39;;;;;;;;;;;;;;;13.98;82.70;100289.75;1297554;22;772;-80
2022/11/07 01:01:30;;;;;;;;;;;;;;;14.07;82.23;100286.28;1297740;22;657;-79
2022/11/07 01:02:20;;;;;;;;;;;;;;;14.01;81.79;100286.81;1296742;22;652;-80
2022/11/07 01:05:29;;;;;;;;;;;;;;;14.17;82.67;100280.94;1296005;22;609;-79
2022/11/07 01:06:19;;;;;;;;;;;;;;;14.02;81.44;100287.66;1297409;22;696;-79
2022/11/07 01:07:09;;;;;;;;;;;;;;;13.83;80.39;100283.94;1297592;22;644;-79
2022/11/07 01:08:00;;;;;;;;;;;;;;;13.95;82.74;100282.03;1297352;22;602;-79
2022/11/07 01:08:50;;;;;;;;;;;;;;;14.04;82.90;100283.88;1297644;22;683;-80
2022/11/07 01:09:41;;;;;;;;;;;;;;;14.00;80.62;100298.50;1297659;22;660;-81
2022/11/07 01:10:31;;;;;;;;;;;;;;;14.08;81.62;100290.66;1297427;22;645;-81
2022/11/07 01:11:22;;;;;;;;;;;;;;;14.05;80.91;100292.75;1297632;22;613;-81
2022/11/07 01:12:12;;;;;;;;;;;;;;;14.05;81.24;100296.28;1297364;22;633;-80
2022/11/07 01:13:02;;;;;;;;;;;;;;;13.92;80.13;100295.69;1297696;22;629;-79
2022/11/07 01:13:53;;;;;;;;;;;;;;;14.05;83.55;100296.28;1297438;22;631;-80
2022/11/07 01:14:43;;;;;;;;;;;;;;;14.09;82.87;100287.00;1297612;22;597;-79
2022/11/07 01:15:34;;;;;;;;;;;;;;;14.31;82.39;100293.13;1297710;22;653;-81
2022/11/07 01:16:24;;;;;;;;;;;;;;;14.42;81.78;100298.41;1297413;22;657;-81
2022/11/07 01:17:14;;;;;;;;;;;;;;;14.25;80.45;100297.22;1297074;22;640;-80
2022/11/07 01:18:05;;;;;;;;;;;;;;;14.12;80.04;100301.97;1297454;22;661;-80
2022/11/07 01:18:55;;;;;;;;;;;;;;;14.17;82.79;100294.34;1297518;22;586;-82
2022/11/07 01:19:46;;;;;;;;;;;;;;;14.13;80.75;100293.78;1297726;22;633;-81
2022/11/07 01:20:36;;;;;;;;;;;;;;;14.09;80.97;100302.22;1297436;22;665;-82
2022/11/07 01:21:27;;;;;;;;;;;;;;;13.88;81.03;100296.91;1297574;22;664;-82
2022/11/07 01:22:17;;;;;;;;;;;;;;;13.90;81.92;100298.50;1297391;22;630;-82
2022/11/07 01:23:07;;;;;;;;;;;;;;;14.06;82.88;100303.34;1297572;22;656;-82
2022/11/07 01:23:59;;;;;;;;;;;;;;;14.03;81.84;100306.28;1298464;22;691;-82
2022/11/07 01:24:49;;;;;;;;;;;;;;;14.05;82.08;100300.78;1297509;22;735;-81
2022/11/07 01:25:39;;;;;;;;;;;;;;;13.93;81.06;100301.88;1297699;22;684;-82
2022/11/07 01:26:30;;;;;;;;;;;;;;;13.94;81.95;100301.75;1297742;22;660;-81
2022/11/07 01:27:20;;;;;;;;;;;;;;;13.94;81.44;100301.75;1297477;22;609;-81
2022/11/07 01:28:11;;;;;;;;;;;;;;;13.91;81.96;100299.34;1297766;22;652;-81
2022/11/07 01:29:01;;;;;;;;;;;;;;;13.98;81.62;100297.78;1297309;22;669;-81
2022/11/07 01:29:52;;;;;;;;;;;;;;;14.14;82.54;100308.03;1297852;22;613;-81
2022/11/07 01:30:42;;;;;;;;;;;;;;;14.31;82.09;100318.13;1298137;22;665;-81
2022/11/07 01:31:32;;;;;;;;;;;;;;;14.15;80.07;100310.56;1297342;22;645;-82
2022/11/07 01:32:23;;;;;;;;;;;;;;;14.05;81.92;100308.84;1298406;22;601;-82
2022/11/07 01:33:13;;;;;;;;;;;;;;;14.04;79.86;100309.81;1297707;22;800;-81
2022/11/07 01:34:04;;;;;;;;;;;;;;;14.11;81.84;100311.84;1297938;22;653;-81
2022/11/07 01:34:54;;;;;;;;;;;;;;;14.22;81.54;100314.41;1297842;22;633;-81
2022/11/07 01:35:44;;;;;;;;;;;;;;;14.18;82.37;100317.47;1297828;22;673;-83
2022/11/07 01:36:35;;;;;;;;;;;;;;;13.91;80.61;100312.72;1297729;22;679;-81
2022/11/07 01:37:25;;;;;;;;;;;;;;;14.04;81.60;100318.69;1297786;22;668;-82
2022/11/07 01:38:16;;;;;;;;;;;;;;;14.18;82.57;100322.84;1297870;22;643;-81
2022/11/07 01:39:06;;;;;;;;;;;;;;;14.22;82.32;100310.88;1298051;22;621;-81
2022/11/07 01:39:57;;;;;;;;;;;;;;;14.35;82.47;100305.25;1297767;22;648;-82
2022/11/07 01:41:56;;;;;;;;;;;;;;;14.32;81.63;100309.09;1294618;22;735;-81
2022/11/07 01:42:46;;;;;;;;;;;;;;;14.31;81.62;100317.25;1297364;22;578;-81
2022/11/07 01:43:37;;;;;;;;;;;;;;;14.31;82.05;100311.91;1297574;22;565;-80
2022/11/07 01:44:27;;;;;;;;;;;;;;;14.27;82.30;100314.00;1297432;22;636;-81
2022/11/07 01:45:18;;;;;;;;;;;;;;;14.18;81.62;100302.25;1297858;22;668;-81
2022/11/07 01:46:08;;;;;;;;;;;;;;;14.18;81.96;100299.56;1297121;22;672;-81
2022/11/07 01:46:59;;;;;;;;;;;;;;;14.12;81.81;100305.50;1297627;22;628;-81
2022/11/07 01:47:49;;;;;;;;;;;;;;;14.05;81.79;100317.72;1297626;22;605;-80
2022/11/07 01:48:40;;;;;;;;;;;;;;;14.11;81.86;100314.50;1297563;22;620;-81
2022/11/07 01:49:30;;;;;;;;;;;;;;;14.07;79.99;100307.72;1297310;22;1916;-80
2022/11/07 01:50:21;;;;;;;;;;;;;;;14.03;81.04;100303.59;1297554;22;604;-80
2022/11/07 01:51:11;;;;;;;;;;;;;;;14.14;82.93;100308.03;1297231;22;601;-83
2022/11/07 01:52:02;;;;;;;;;;;;;;;14.05;80.90;100309.69;1297419;22;1615;-82
2022/11/07 01:52:53;;;;;;;;;;;;;;;14.16;81.53;100319.44;1298358;22;660;-82
2022/11/07 01:53:43;;;;;;;;;;;;;;;14.12;81.25;100331.44;1297415;22;550;-82
2022/11/07 01:54:34;;;;;;;;;;;;;;;14.03;81.85;100318.84;1297620;22;644;-83
2022/11/07 01:55:24;;;;;;;;;;;;;;;14.05;82.56;100317.72;1297433;22;671;-83
2022/11/07 01:56:15;;;;;;;;;;;;;;;14.10;81.10;100320.00;1297740;22;645;-83
2022/11/07 01:57:05;;;;;;;;;;;;;;;14.21;81.48;100312.69;1297426;22;629;-83
2022/11/07 01:57:56;;;;;;;;;;;;;;;14.22;82.00;100325.13;1297440;22;738;-83
2022/11/07 01:58:46;;;;;;;;;;;;;;;14.12;82.27;100318.88;1298305;22;719;-82
2022/11/07 01:59:36;;;;;;;;;;;;;;;14.13;81.30;100309.88;1297396;22;617;-82
2022/11/07 02:00:27;;;;;;;;;;;;;;;14.16;82.32;100320.28;1296946;22;788;-83
2022/11/07 02:01:17;;;;;;;;;;;;;;;14.21;81.17;100312.69;1297026;22;737;-82
2022/11/07 02:02:08;;;;;;;;;;;;;;;13.99;80.09;100318.25;1296389;22;644;-82
2022/11/07 02:02:58;;;;;;;;;;;;;;;13.96;82.20;100313.19;1296486;22;649;-82
2022/11/07 02:03:49;;;;;;;;;;;;;;;14.01;81.80;100307.41;1297598;22;637;-82
2022/11/07 02:04:39;;;;;;;;;;;;;;;14.21;82.88;100301.97;1297343;22;597;-82
2022/11/07 02:05:29;;;;;;;;;;;;;;;14.23;81.11;100305.38;1297502;22;652;-83
2022/11/07 02:06:20;;;;;;;;;;;;;;;14.06;80.33;100323.94;1297560;22;585;-83
2022/11/07 02:07:10;;;;;;;;;;;;;;;13.89;81.69;100323.56;1297565;22;637;-82
2022/11/07 02:08:01;;;;;;;;;;;;;;;13.89;81.05;100328.94;1297486;22;695;-83
2022/11/07 02:08:51;;;;;;;;;;;;;;;14.01;82.42;100321.66;1297115;22;641;-83
2022/11/07 02:09:42;;;;;;;;;;;;;;;13.94;81.47;100325.00;1296374;22;664;-82
2022/11/07 02:10:32;;;;;;;;;;;;;;;14.02;82.84;100317.97;1296470;22;628;-82
2022/11/07 02:11:22;;;;;;;;;;;;;;;14.03;81.51;100324.19;1297539;22;625;-82
2022/11/07 02:12:13;;;;;;;;;;;;;;;13.81;80.90;100328.72;1297499;22;611;-82
2022/11/07 02:13:03;;;;;;;;;;;;;;;13.85;81.48;100330.19;1297464;22;668;-82
2022/11/07 02:13:54;;;;;;;;;;;;;;;13.80;81.60;100331.53;1297461;22;656;-82
2022/11/07 02:14:44;;;;;;;;;;;;;;;13.83;82.00;100328.59;1297330;22;688;-82
2022/11/07 02:15:35;;;;;;;;;;;;;;;13.76;80.82;100322.94;1297486;22;628;-82
2022/11/07 02:16:26;;;;;;;;;;;;;;;13.91;82.41;100331.47;1297314;22;648;-82
2022/11/07 02:17:17;;;;;;;;;;;;;;;14.14;82.54;100321.44;1297501;22;683;-82
2022/11/07 02:18:07;;;;;;;;;;;;;;;14.13;81.29;100331.31;1298382;22;687;-83
2022/11/07 02:18:57;;;;;;;;;;;;;;;14.19;82.34;100330.75;1297119;22;770;-83
2022/11/07 02:19:48;;;;;;;;;;;;;;;14.29;81.76;100324.59;1296507;22;613;-83
2022/11/07 02:20:38;;;;;;;;;;;;;;;14.24;82.22;100320.47;1296727;22;621;-83
2022/11/07 02:21:29;;;;;;;;;;;;;;;14.25;81.84;100326.69;1297585;22;596;-82
2022/11/07 02:22:19;;;;;;;;;;;;;;;14.32;81.03;100324.31;1297214;22;653;-82
2022/11/07 02:23:10;;;;;;;;;;;;;;;14.38;82.06;100321.06;1297464;22;652;-82
2022/11/07 02:24:00;;;;;;;;;;;;;;;14.22;79.94;100324.28;1297171;22;664;-82
2022/11/07 02:24:51;;;;;;;;;;;;;;;14.19;82.06;100325.38;1296294;22;703;-83
2022/11/07 02:25:41;;;;;;;;;;;;;;;14.09;81.24;100329.88;1296321;22;617;-82
2022/11/07 02:26:31;;;;;;;;;;;;;;;14.29;82.48;100320.06;1297339;22;609;-82
2022/11/07 02:27:22;;;;;;;;;;;;;;;14.23;81.03;100320.59;1297494;22;833;-83
2022/11/07 02:28:12;;;;;;;;;;;;;;;14.17;82.67;100327.34;1297425;22;672;-83
2022/11/07 02:29:03;;;;;;;;;;;;;;;14.27;81.89;100319.38;1297504;22;660;-83
2022/11/07 02:29:53;;;;;;;;;;;;;;;14.32;82.29;100318.97;1297333;22;633;-83
2022/11/07 02:30:44;;;;;;;;;;;;;;;14.31;82.07;100320.78;1297406;22;636;-82
2022/11/07 02:31:34;;;;;;;;;;;;;;;14.22;80.86;100326.94;1297103;22;861;-82
2022/11/07 02:32:24;;;;;;;;;;;;;;;14.25;80.60;100324.84;1297527;22;609;-82
2022/11/07 02:33:15;;;;;;;;;;;;;;;13.97;81.12;100327.44;1297306;22;656;-83
2022/11/07 02:34:05;;;;;;;;;;;;;;;13.86;81.01;100331.03;1297447;22;668;-82
2022/11/07 02:34:56;;;;;;;;;;;;;;;14.12;83.19;100326.94;1297502;22;703;-82
2022/11/07 02:35:46;;;;;;;;;;;;;;;14.18;80.92;100334.41;1296918;22;684;-82
2022/11/07 02:36:37;;;;;;;;;;;;;;;14.27;82.16;100327.41;1296496;22;771;-83
2022/11/07 02:37:27;;;;;;;;;;;;;;;14.25;82.68;100335.56;1296320;22;703;-84
2022/11/07 02:38:17;;;;;;;;;;;;;;;14.40;82.18;100319.09;1297400;22;871;-83
2022/11/07 02:39:08;;;;;;;;;;;;;;;14.31;80.13;100327.97;1297445;22;576;-83
2022/11/07 02:39:58;;;;;;;;;;;;;;;14.37;81.33;100322.06;1297249;22;609;-83
2022/11/07 02:40:49;;;;;;;;;;;;;;;14.45;82.03;100324.94;1298326;22;667;-82
2022/11/07 02:41:39;;;;;;;;;;;;;;;14.37;81.58;100332.78;1297367;22;656;-82
2022/11/07 02:42:42;;;;;;;;;;;;;;;14.28;80.27;100331.78;1297317;22;727;-82
2022/11/07 02:43:32;;;;;;;;;;;;;;;14.24;81.24;100339.25;1297327;22;613;-83
2022/11/07 02:44:23;;;;;;;;;;;;;;;14.37;82.37;100332.78;1296935;22;620;-83
2022/11/07 02:45:13;;;;;;;;;;;;;;;14.31;81.83;100336.03;1296277;22;644;-82
2022/11/07 02:46:03;;;;;;;;;;;;;;;14.09;80.80;100332.56;1296478;22;641;-83
2022/11/07 02:46:54;;;;;;;;;;;;;;;14.07;81.35;100336.34;1297527;22;624;-83
2022/11/07 02:47:44;;;;;;;;;;;;;;;14.23;82.72;100336.69;1297327;22;676;-80
2022/11/07 02:48:35;;;;;;;;;;;;;;;14.28;81.74;100320.22;1297339;22;719;-80
2022/11/07 02:49:25;;;;;;;;;;;;;;;14.28;81.09;100333.59;1297040;22;1880;-79
2022/11/07 02:50:16;;;;;;;;;;;;;;;14.32;82.42;100329.69;1297395;22;661;-79
2022/11/07 02:51:06;;;;;;;;;;;;;;;14.25;81.38;100332.91;1297524;22;613;-81
2022/11/07 02:51:56;;;;;;;;;;;;;;;14.25;82.79;100326.69;1297192;22;1117;-81
2022/11/07 02:52:47;;;;;;;;;;;;;;;14.27;81.18;100319.38;1298281;22;538;-82
2022/11/07 02:53:37;;;;;;;;;;;;;;;14.17;81.13;100326.50;1297232;22;601;-82
2022/11/07 02:54:28;;;;;;;;;;;;;;;14.11;80.76;100322.56;1297362;22;605;-82
2022/11/07 02:55:18;;;;;;;;;;;;;;;14.14;81.33;100326.78;1297281;22;640;-81
2022/11/07 02:56:09;;;;;;;;;;;;;;;14.26;82.73;100331.06;1297277;22;646;-82
2022/11/07 02:56:59;;;;;;;;;;;;;;;14.24;81.97;100316.94;1297588;22;664;-82
2022/11/07 02:57:49;;;;;;;;;;;;;;;14.37;81.98;100330.09;1297152;22;751;-82
2022/11/07 02:58:40;;;;;;;;;;;;;;;14.38;81.87;100331.78;1296844;22;688;-82
2022/11/07 02:59:30;;;;;;;;;;;;;;;14.44;82.22;100328.63;1297343;22;633;-82
2022/11/07 03:00:21;;;;;;;;;;;;;;;14.44;81.46;100329.47;1298151;22;636;-81
2022/11/07 03:01:11;;;;;;;;;;;;;;;14.34;81.93;100327.69;1297292;22;704;-81
2022/11/07 03:02:02;;;;;;;;;;;;;;;14.41;82.14;100331.56;1297274;22;648;-83
2022/11/07 03:02:52;;;;;;;;;;;;;;;14.37;81.21;100320.22;1296970;22;572;-81
2022/11/07 03:03:42;;;;;;;;;;;;;;;14.28;80.65;100322.88;1296130;22;625;-82
2022/11/07 03:04:33;;;;;;;;;;;;;;;14.22;81.47;100330.47;1296588;22;681;-80
2022/11/07 03:05:23;;;;;;;;;;;;;;;14.27;80.87;100329.22;1297340;22;613;-80
2022/11/07 03:06:14;;;;;;;;;;;;;;;14.37;82.02;100327.41;1297210;22;684;-80
2022/11/07 03:07:04;;;;;;;;;;;;;;;14.35;81.22;100340.97;1297168;22;610;-81
2022/11/07 03:07:54;;;;;;;;;;;;;;;14.31;82.39;100327.97;1297367;22;673;-81
2022/11/07 03:08:45;;;;;;;;;;;;;;;14.30;81.27;100327.13;1297551;22;650;-81
2022/11/07 03:09:35;;;;;;;;;;;;;;;14.41;82.24;100320.84;1297002;22;1880;-81
2022/11/07 03:10:26;;;;;;;;;;;;;;;14.41;81.56;100329.72;1297223;22;609;-82
2022/11/07 03:11:18;;;;;;;;;;;;;;;14.31;82.66;100344.06;1297139;22;648;-82
2022/11/07 03:12:08;;;;;;;;;;;;;;;14.31;81.23;100350.28;1297409;22;593;-81
2022/11/07 03:13:00;;;;;;;;;;;;;;;14.18;81.15;100346.97;1296790;22;589;-80
2022/11/07 03:13:52;;;;;;;;;;;;;;;14.03;81.88;100340.25;1297431;22;637;-82
2022/11/07 03:14:43;;;;;;;;;;;;;;;14.16;82.93;100344.41;1297232;22;602;-82
2022/11/07 03:15:33;;;;;;;;;;;;;;;14.20;82.33;100345.00;1297174;22;652;-81
2022/11/07 03:16:24;;;;;;;;;;;;;;;14.26;81.98;100333.75;1297238;22;629;-83
2022/11/07 03:17:14;;;;;;;;;;;;;;;14.33;81.63;100347.47;1297095;22;652;-82
2022/11/07 03:18:05;;;;;;;;;;;;;;;14.25;82.21;100345.44;1297209;22;598;-81
2022/11/07 03:18:55;;;;;;;;;;;;;;;14.37;82.44;100335.47;1296867;22;645;-81
2022/11/07 03:19:45;;;;;;;;;;;;;;;14.35;81.55;100350.81;1296096;22;572;-82
2022/11/07 03:20:36;;;;;;;;;;;;;;;14.35;81.76;100351.69;1296599;22;617;-82
2022/11/07 03:21:26;;;;;;;;;;;;;;;14.14;80.36;100349.09;1297139;22;636;-80
2022/11/07 03:22:17;;;;;;;;;;;;;;;14.22;82.22;100341.19;1297359;22;629;-81
2022/11/07 03:23:07;;;;;;;;;;;;;;;14.35;82.40;100349.00;1297483;22;605;-81
2022/11/07 03:23:57;;;;;;;;;;;;;;;14.23;80.46;100348.25;1297352;22;660;-81
2022/11/07 03:24:48;;;;;;;;;;;;;;;14.39;81.75;100352.25;1297488;22;579;-82
2022/11/07 03:25:38;;;;;;;;;;;;;;;14.24;80.90;100360.69;1297064;22;621;-81
2022/11/07 03:26:29;;;;;;;;;;;;;;;14.08;81.34;100349.59;1297022;22;633;-81
2022/11/07 03:27:19;;;;;;;;;;;;;;;14.00;81.27;100361.97;1295267;22;606;-81
2022/11/07 03:28:10;;;;;;;;;;;;;;;14.04;81.48;100358.88;1296406;22;623;-81
2022/11/07 03:29:00;;;;;;;;;;;;;;;14.22;82.71;100359.09;1297045;22;676;-82
2022/11/07 03:29:50;;;;;;;;;;;;;;;14.09;81.70;100356.66;1295904;22;616;-82
2022/11/07 03:30:41;;;;;;;;;;;;;;;14.05;80.19;100359.75;1296613;22;620;-81
2022/11/07 03:31:31;;;;;;;;;;;;;;;14.13;81.01;100354.56;1297180;22;763;-80
2022/11/07 03:32:22;;;;;;;;;;;;;;;14.21;82.24;100355.59;1297338;22;683;-81
2022/11/07 03:33:12;;;;;;;;;;;;;;;14.31;81.91;100355.63;1297257;22;715;-82
2022/11/07 03:34:03;;;;;;;;;;;;;;;14.34;80.95;100349.13;1297220;22;664;-82
2022/11/07 03:34:56;;;;;;;;;;;;;;;14.31;81.53;100360.16;1297751;22;644;-81
2022/11/07 03:35:54;;;;;;;;;;;;;;;14.29;81.78;100351.38;1298128;22;625;-81
2022/11/07 03:36:45;;;;;;;;;;;;;;;14.29;80.40;100351.38;1298327;22;668;-80
2022/11/07 03:37:35;;;;;;;;;;;;;;;14.13;80.60;100350.06;1295892;22;840;-80
2022/11/07 03:38:26;;;;;;;;;;;;;;;14.28;82.48;100349.69;1290455;23;673;-80
2022/11/07 03:39:16;;;;;;;;;;;;;;;14.21;81.20;100352.91;1290249;23;668;-81
2022/11/07 03:40:07;;;;;;;;;;;;;;;14.08;81.14;100346.94;1291578;23;610;-81
2022/11/07 03:40:58;;;;;;;;;;;;;;;14.04;81.47;100358.88;1290818;23;696;-82
2022/11/07 03:41:49;;;;;;;;;;;;;;;14.16;81.77;100352.44;1296819;22;711;-82
2022/11/07 03:42:40;;;;;;;;;;;;;;;14.25;82.26;100350.81;1297044;22;632;-81
2022/11/07 03:43:30;;;;;;;;;;;;;;;14.33;82.52;100352.81;1296800;22;614;-81
2022/11/07 03:44:21;;;;;;;;;;;;;;;14.40;82.30;100349.47;1296521;22;660;-80
2022/11/07 03:45:12;;;;;;;;;;;;;;;14.42;80.77;100352.03;1296834;22;688;-82
2022/11/07 03:46:02;;;;;;;;;;;;;;;14.34;81.77;100354.50;1297258;22;645;-80
2022/11/07 03:46:53;;;;;;;;;;;;;;;14.36;81.67;100353.38;1297644;22;652;-81
2022/11/07 03:47:43;;;;;;;;;;;;;;;14.31;80.70;100355.63;1297699;22;624;-81
2022/11/07 03:48:33;;;;;;;;;;;;;;;14.41;81.83;100351.19;1297621;22;609;-81
2022/11/07 03:49:24;;;;;;;;;;;;;;;14.43;81.92;100348.38;1297778;22;1928;-82
2022/11/07 03:50:14;;;;;;;;;;;;;;;14.48;81.95;100346.13;1297123;22;601;-82
2022/11/07 03:51:05;;;;;;;;;;;;;;;14.54;81.49;100346.41;1297271;22;704;-81
2022/11/07 03:51:55;;;;;;;;;;;;;;;14.39;80.85;100349.56;1296580;22;1106;-80
2022/11/07 03:52:46;;;;;;;;;;;;;;;14.40;80.54;100353.97;1296089;22;796;-80
2022/11/07 03:53:36;;;;;;;;;;;;;;;14.29;81.71;100348.72;1296432;22;621;-82
2022/11/07 03:54:27;;;;;;;;;;;;;;;14.29;82.24;100351.38;1297188;22;688;-80
2022/11/07 03:55:17;;;;;;;;;;;;;;;14.22;80.18;100351.06;1297193;22;605;-80
2022/11/07 03:56:08;;;;;;;;;;;;;;;14.34;82.51;100346.44;1297188;22;664;-80
2022/11/07 03:56:58;;;;;;;;;;;;;;;14.44;82.13;100342.00;1297438;22;660;-81
2022/11/07 03:57:49;;;;;;;;;;;;;;;14.42;80.85;100336.78;1297270;22;645;-80
2022/11/07 03:58:39;;;;;;;;;;;;;;;14.41;81.24;100355.69;1297455;22;602;-79
2022/11/07 03:59:29;;;;;;;;;;;;;;;14.19;81.75;100346.81;1297129;22;680;-80
2022/11/07 04:00:20;;;;;;;;;;;;;;;14.23;82.01;100350.09;1297188;22;671;-80
2022/11/07 04:01:12;;;;;;;;;;;;;;;14.37;82.16;100343.50;1297238;22;633;-81
2022/11/07 04:02:02;;;;;;;;;;;;;;;14.44;81.96;100345.53;1297282;22;631;-82
2022/11/07 04:02:52;;;;;;;;;;;;;;;14.34;81.63;100349.13;1297328;22;621;-83
2022/11/07 04:03:43;;;;;;;;;;;;;;;14.25;80.99;100351.66;1297525;22;649;-83
2022/11/07 04:04:33;;;;;;;;;;;;;;;14.23;81.16;100356.31;1297101;22;597;-83
2022/11/07 04:05:24;;;;;;;;;;;;;;;14.22;81.21;100351.91;1297334;22;691;-84
2022/11/07 04:06:14;;;;;;;;;;;;;;;14.23;82.65;100358.97;1297187;22;617;-84
2022/11/07 04:07:05;;;;;;;;;;;;;;;14.24;81.10;100360.69;1297249;22;645;-83
2022/11/07 04:07:55;;;;;;;;;;;;;;;14.18;81.51;100352.31;1297307;22;672;-83
2022/11/07 04:08:46;;;;;;;;;;;;;;;14.14;80.92;100354.44;1297195;22;680;-82
2022/11/07 04:09:36;;;;;;;;;;;;;;;14.24;81.48;100360.69;1297236;22;1901;-85
2022/11/07 04:10:26;;;;;;;;;;;;;;;14.29;81.13;100354.06;1296991;22;645;-86
2022/11/07 04:17:18;;;;;;;;;;;;;;;14.34;80.90;100370.56;1295831;22;626;-81
2022/11/07 04:18:09;;;;;;;;;;;;;;;14.26;81.80;100365.91;1297437;22;652;-81
2022/11/07 04:19:01;;;;;;;;;;;;;;;14.30;81.66;100361.13;1296638;22;649;-80
2022/11/07 04:19:51;;;;;;;;;;;;;;;14.30;81.25;100363.81;1296283;22;633;-79
2022/11/07 04:20:41;;;;;;;;;;;;;;;14.40;82.23;100362.00;1296331;22;645;-79
2022/11/07 04:21:32;;;;;;;;;;;;;;;14.49;82.33;100359.41;1297726;22;608;-80
2022/11/07 04:22:22;;;;;;;;;;;;;;;14.44;82.16;100367.00;1297639;22;660;-79
2022/11/07 04:23:13;;;;;;;;;;;;;;;14.46;82.00;100366.88;1297559;22;664;-80
2022/11/07 04:24:03;;;;;;;;;;;;;;;14.40;81.42;100364.69;1297606;22;739;-80
2022/11/07 04:24:54;;;;;;;;;;;;;;;14.38;80.46;100364.81;1297609;22;625;-79
2022/11/07 04:28:02;;;;;;;;;;;;;;;14.47;80.91;100361.38;1295075;22;641;-79
2022/11/07 04:28:53;;;;;;;;;;;;;;;14.53;81.53;100359.94;1297718;22;684;-80
2022/11/07 04:29:43;;;;;;;;;;;;;;;14.58;81.59;100371.97;1298628;22;691;-81
2022/11/07 04:30:34;;;;;;;;;;;;;;;14.61;81.78;100370.84;1297505;22;625;-80
2022/11/07 04:31:24;;;;;;;;;;;;;;;14.62;81.76;100364.50;1297569;22;649;-79
2022/11/07 04:32:15;;;;;;;;;;;;;;;14.59;80.69;100362.94;1297582;22;601;-80
2022/11/07 04:33:05;;;;;;;;;;;;;;;14.60;81.87;100363.78;1297760;22;687;-81
2022/11/07 04:33:55;;;;;;;;;;;;;;;14.62;81.63;100363.66;1297584;22;621;-81
2022/11/07 04:34:46;;;;;;;;;;;;;;;14.62;81.77;100372.56;1297710;22;687;-83
2022/11/07 04:35:36;;;;;;;;;;;;;;;14.63;81.60;100366.22;1297643;22;652;-81
2022/11/07 04:36:27;;;;;;;;;;;;;;;14.56;80.53;100370.41;1297713;22;656;-82
2022/11/07 04:37:17;;;;;;;;;;;;;;;14.52;81.83;100363.63;1297559;22;648;-81
2022/11/07 04:38:08;;;;;;;;;;;;;;;14.55;82.41;100360.66;1297753;22;594;-83